PWSweather.com
Personal Weather Stations
Station Observations
PENICUIKWS
PenicuikGB

PenicuikGB

Lat: 55.830932, Lon: -3.224533000000065

Elevation: 166

Station Type: Fine Offset

http://weather.penicuik.org

High Low Average
Temperature 70.0°F21.1°C 49.8°F9.9°C 60.0°F15.6°C
Dew Point 64.1°F17.8°C 43.7°F6.5°C 55.6°F13.1°C
Winds 17.1 mph 27.5 kmh Calm Calm 5.0 mph S8.0 kmh S
Wind Gusts 28.9 mph46.5 kmh -- 8.0 mph12.9 kmh
Humidity 98% 57% 86%
Pressure 29.63 in1003.4 mb 29.39 in995.3 mb -
Precipitation 0.28 in7.1 mm - -
Hour Temp Dew Point Humidity Winds Wind Gusts Pressure Precip Precip Rate Daily Precip Total
12:00 AM 64.0°F17.8°C 61.4°F16.3°C 91% 1.8 mph N2.9 kmh N 3.8 mph6.1 kmh 29.60 in1002.4 mb 0.00 in0.0 mm 0.00 in0.0 mm 0.00 in0.0 mm
12:15 AM 64.4°F18.0°C 62.4°F16.9°C 93% 2.4 mph N3.9 kmh N 4.5 mph7.2 kmh 29.62 in1003.0 mb 0.00 in0.0 mm 0.00 in0.0 mm 0.00 in0.0 mm
12:30 AM 64.8°F18.2°C 62.7°F17.1°C 93% 2.0 mph NNE3.2 kmh NNE 5.4 mph8.7 kmh 29.63 in1003.4 mb 0.00 in0.0 mm 0.00 in0.0 mm 0.00 in0.0 mm
12:45 AM 64.4°F18.0°C 62.0°F16.7°C 92% 1.1 mph SSW1.8 kmh SSW 3.1 mph5.0 kmh 29.63 in1003.4 mb 0.00 in0.0 mm 0.00 in0.0 mm 0.00 in0.0 mm
01:00 AM 63.9°F17.7°C 60.9°F16.1°C 90% 1.2 mph S1.9 kmh S 2.2 mph3.5 kmh 29.63 in1003.4 mb 0.01 in0.3 mm 0.01 in0.3 mm 0.01 in0.3 mm
01:15 AM 62.8°F17.1°C 60.1°F15.6°C 91% 0.8 mph NNE1.3 kmh NNE 1.6 mph2.6 kmh 29.61 in1002.7 mb 0.11 in2.8 mm 0.40 in10.2 mm 0.11 in2.8 mm
01:30 AM 62.2°F16.8°C 60.2°F15.7°C 93% 0.6 mph S1.0 kmh S 1.6 mph2.6 kmh 29.60 in1002.4 mb 0.11 in2.8 mm 0.00 in0.0 mm 0.11 in2.8 mm
01:45 AM 62.1°F16.7°C 60.3°F15.7°C 94% 0.7 mph NW1.1 kmh NW 2.2 mph3.5 kmh 29.60 in1002.4 mb 0.11 in2.8 mm 0.00 in0.0 mm 0.11 in2.8 mm
02:00 AM 61.5°F16.4°C 59.8°F15.4°C 94% 0.3 mph SSW0.5 kmh SSW 2.2 mph3.5 kmh 29.60 in1002.4 mb 0.09 in2.3 mm 0.00 in0.0 mm 0.11 in2.8 mm
02:15 AM 61.2°F16.2°C 59.7°F15.4°C 95% 0.3 mph N0.5 kmh N 1.6 mph2.6 kmh 29.60 in1002.4 mb 0.01 in0.3 mm 0.00 in0.0 mm 0.12 in3.0 mm
02:30 AM 60.8°F16.0°C 59.4°F15.2°C 95% Calm Calm -- 29.58 in1001.7 mb 0.02 in0.5 mm 0.04 in1.0 mm 0.13 in3.3 mm
02:45 AM 60.8°F16.0°C 59.4°F15.2°C 95% Calm Calm -- 29.58 in1001.7 mb 0.02 in0.5 mm 0.00 in0.0 mm 0.13 in3.3 mm
03:00 AM 60.8°F16.0°C 59.4°F15.2°C 95% Calm Calm -- 29.55 in1000.7 mb 0.02 in0.5 mm 0.00 in0.0 mm 0.13 in3.3 mm
03:15 AM 60.8°F16.0°C 59.4°F15.2°C 95% 0.2 mph S0.3 kmh S 0.7 mph1.1 kmh 29.53 in1000.0 mb 0.01 in0.3 mm 0.00 in0.0 mm 0.13 in3.3 mm
03:30 AM 60.8°F16.0°C 59.7°F15.4°C 96% 0.2 mph SW0.3 kmh SW 1.6 mph2.6 kmh 29.54 in1000.3 mb 0.00 in0.0 mm 0.00 in0.0 mm 0.13 in3.3 mm
03:45 AM 60.8°F16.0°C 59.7°F15.4°C 96% 0.2 mph S0.3 kmh S 1.6 mph2.6 kmh 29.54 in1000.3 mb 0.00 in0.0 mm 0.00 in0.0 mm 0.13 in3.3 mm
04:00 AM 60.8°F16.0°C 59.7°F15.4°C 96% 0.8 mph N1.3 kmh N 1.6 mph2.6 kmh 29.56 in1001.0 mb 0.01 in0.3 mm 0.01 in0.3 mm 0.14 in3.6 mm
04:15 AM 60.8°F16.0°C 60.0°F15.6°C 97% 0.7 mph N1.1 kmh N 1.6 mph2.6 kmh 29.52 in999.7 mb 0.02 in0.5 mm 0.04 in1.0 mm 0.15 in3.8 mm
04:30 AM 61.2°F16.2°C 60.3°F15.7°C 97% 0.2 mph N0.3 kmh N 1.6 mph2.6 kmh 29.53 in1000.0 mb 0.02 in0.5 mm 0.00 in0.0 mm 0.15 in3.8 mm
04:45 AM 61.3°F16.3°C 60.5°F15.8°C 97% 0.3 mph N0.5 kmh N 1.6 mph2.6 kmh 29.53 in1000.0 mb 0.02 in0.5 mm 0.00 in0.0 mm 0.15 in3.8 mm
05:00 AM 61.3°F16.3°C 60.5°F15.8°C 97% 0.4 mph N0.6 kmh N 1.6 mph2.6 kmh 29.53 in1000.0 mb 0.01 in0.3 mm 0.00 in0.0 mm 0.15 in3.8 mm
05:15 AM 61.5°F16.4°C 60.7°F15.9°C 97% Calm Calm -- 29.52 in999.7 mb 0.00 in0.0 mm 0.00 in0.0 mm 0.15 in3.8 mm
05:30 AM 61.5°F16.4°C 60.7°F15.9°C 97% 0.2 mph WNW0.3 kmh WNW 0.7 mph1.1 kmh 29.52 in999.7 mb 0.00 in0.0 mm 0.00 in0.0 mm 0.15 in3.8 mm
05:45 AM 61.9°F16.6°C 61.3°F16.3°C 98% 0.8 mph WSW1.3 kmh WSW 2.2 mph3.5 kmh 29.52 in999.7 mb 0.00 in0.0 mm 0.00 in0.0 mm 0.15 in3.8 mm
06:00 AM 62.6°F17.0°C 61.8°F16.6°C 97% 1.2 mph SW1.9 kmh SW 3.8 mph6.1 kmh 29.51 in999.3 mb 0.00 in0.0 mm 0.00 in0.0 mm 0.15 in3.8 mm
06:15 AM 63.0°F17.2°C 62.1°F16.7°C 97% 1.0 mph NNE1.6 kmh NNE 2.2 mph3.5 kmh 29.50 in999.0 mb 0.00 in0.0 mm 0.00 in0.0 mm 0.15 in3.8 mm
06:30 AM 63.7°F17.6°C 62.8°F17.1°C 97% 2.7 mph SW4.3 kmh SW 4.5 mph7.2 kmh 29.50 in999.0 mb 0.00 in0.0 mm 0.00 in0.0 mm 0.15 in3.8 mm
06:45 AM 64.6°F18.1°C 63.7°F17.6°C 97% 3.4 mph SSW5.5 kmh SSW 6.0 mph9.7 kmh 29.49 in998.6 mb 0.00 in0.0 mm 0.00 in0.0 mm 0.15 in3.8 mm
07:00 AM 66.2°F19.0°C 64.1°F17.8°C 93% 5.3 mph SE8.5 kmh SE 9.8 mph15.8 kmh 29.49 in998.6 mb 0.00 in0.0 mm 0.00 in0.0 mm 0.15 in3.8 mm
07:15 AM 66.4°F19.1°C 63.1°F17.3°C 89% 4.7 mph SSE7.6 kmh SSE 7.6 mph12.2 kmh 29.49 in998.6 mb 0.00 in0.0 mm 0.00 in0.0 mm 0.15 in3.8 mm
07:30 AM 66.2°F19.0°C 62.2°F16.8°C 87% 6.8 mph S10.9 kmh S 10.7 mph17.2 kmh 29.48 in998.3 mb 0.00 in0.0 mm 0.00 in0.0 mm 0.15 in3.8 mm
07:45 AM 67.3°F19.6°C 63.0°F17.2°C 86% 5.2 mph S8.4 kmh S 9.2 mph14.8 kmh 29.46 in997.6 mb 0.00 in0.0 mm 0.00 in0.0 mm 0.15 in3.8 mm
08:00 AM 67.8°F19.9°C 62.5°F16.9°C 83% 5.9 mph NE9.5 kmh NE 9.2 mph14.8 kmh 29.46 in997.6 mb 0.00 in0.0 mm 0.00 in0.0 mm 0.15 in3.8 mm
08:15 AM 68.4°F20.2°C 60.9°F16.1°C 77% 7.3 mph S11.7 kmh S 10.7 mph17.2 kmh 29.46 in997.6 mb 0.00 in0.0 mm 0.00 in0.0 mm 0.15 in3.8 mm
08:30 AM 70.0°F21.1°C 61.3°F16.3°C 74% 5.8 mph S9.3 kmh S 11.4 mph18.3 kmh 29.45 in997.3 mb 0.00 in0.0 mm 0.00 in0.0 mm 0.15 in3.8 mm
08:45 AM 68.4°F20.2°C 60.2°F15.7°C 75% 5.1 mph S8.2 kmh S 7.6 mph12.2 kmh 29.45 in997.3 mb 0.00 in0.0 mm 0.00 in0.0 mm 0.15 in3.8 mm
09:00 AM 67.8°F19.9°C 61.4°F16.3°C 80% 4.2 mph S6.8 kmh S 5.4 mph8.7 kmh 29.44 in997.0 mb 0.00 in0.0 mm 0.00 in0.0 mm 0.15 in3.8 mm
09:15 AM 67.3°F19.6°C 61.6°F16.4°C 82% 2.6 mph SSW4.2 kmh SSW 6.9 mph11.1 kmh 29.43 in996.6 mb 0.00 in0.0 mm 0.00 in0.0 mm 0.15 in3.8 mm
09:30 AM 66.6°F19.2°C 61.3°F16.3°C 83% 3.2 mph S5.1 kmh S 6.9 mph11.1 kmh 29.43 in996.6 mb 0.01 in0.3 mm 0.04 in1.0 mm 0.17 in4.3 mm
09:45 AM 65.3°F18.5°C 61.4°F16.3°C 87% 3.6 mph SW5.8 kmh SW 6.0 mph9.7 kmh 29.43 in996.6 mb 0.02 in0.5 mm 0.04 in1.0 mm 0.18 in4.6 mm
10:00 AM 65.5°F18.6°C 61.5°F16.4°C 87% 1.5 mph SSE2.4 kmh SSE 3.1 mph5.0 kmh 29.42 in996.3 mb 0.02 in0.5 mm 0.00 in0.0 mm 0.18 in4.6 mm
10:15 AM 64.8°F18.2°C 60.8°F16.0°C 87% 4.1 mph SSE6.6 kmh SSE 5.4 mph8.7 kmh 29.42 in996.3 mb 0.02 in0.5 mm 0.00 in0.0 mm 0.18 in4.6 mm
10:30 AM 63.5°F17.5°C 58.3°F14.6°C 83% 4.7 mph SSE7.6 kmh SSE 6.0 mph9.7 kmh 29.42 in996.3 mb 0.01 in0.3 mm 0.00 in0.0 mm 0.18 in4.6 mm
10:45 AM 64.6°F18.1°C 60.0°F15.6°C 85% 2.5 mph SSE4.0 kmh SSE 3.8 mph6.1 kmh 29.41 in995.9 mb 0.00 in0.0 mm 0.00 in0.0 mm 0.18 in4.6 mm
11:00 AM 65.5°F18.6°C 60.5°F15.8°C 84% 6.5 mph SSE10.5 kmh SSE 7.6 mph12.2 kmh 29.40 in995.6 mb 0.00 in0.0 mm 0.00 in0.0 mm 0.18 in4.6 mm
11:15 AM 66.0°F18.9°C 60.0°F15.6°C 81% 7.8 mph S12.6 kmh S 13.6 mph21.9 kmh 29.39 in995.3 mb 0.00 in0.0 mm 0.00 in0.0 mm 0.18 in4.6 mm
11:30 AM 64.9°F18.3°C 55.7°F13.2°C 72% 12.1 mph S19.5 kmh S 17.4 mph28.0 kmh 29.40 in995.6 mb 0.00 in0.0 mm 0.00 in0.0 mm 0.18 in4.6 mm
11:45 AM 61.7°F16.5°C 56.2°F13.4°C 82% 6.8 mph SE10.9 kmh SE 11.4 mph18.3 kmh 29.40 in995.6 mb 0.01 in0.3 mm 0.04 in1.0 mm 0.19 in4.8 mm
12:00 PM 63.9°F17.7°C 59.0°F15.0°C 84% 6.7 mph S10.8 kmh S 9.8 mph15.8 kmh 29.39 in995.3 mb 0.02 in0.5 mm 0.01 in0.3 mm 0.20 in5.1 mm
12:15 PM 65.1°F18.4°C 58.1°F14.5°C 78% 9.0 mph SSW14.5 kmh SSW 14.5 mph23.3 kmh 29.39 in995.3 mb 0.02 in0.5 mm 0.00 in0.0 mm 0.20 in5.1 mm
12:30 PM 66.9°F19.4°C 56.8°F13.8°C 70% 8.6 mph SSW13.8 kmh SSW 15.2 mph24.5 kmh 29.39 in995.3 mb 0.02 in0.5 mm 0.00 in0.0 mm 0.20 in5.1 mm
12:45 PM 67.6°F19.8°C 54.2°F12.3°C 62% 10.0 mph WSW16.1 kmh WSW 12.1 mph19.5 kmh 29.39 in995.3 mb 0.01 in0.3 mm 0.00 in0.0 mm 0.20 in5.1 mm
01:00 PM 66.9°F19.4°C 53.1°F11.7°C 61% 10.7 mph S17.2 kmh S 17.4 mph28.0 kmh 29.40 in995.6 mb 0.00 in0.0 mm 0.00 in0.0 mm 0.20 in5.1 mm
01:15 PM 67.5°F19.7°C 51.7°F10.9°C 57% 10.3 mph S16.6 kmh S 16.8 mph27.0 kmh 29.40 in995.6 mb 0.00 in0.0 mm 0.00 in0.0 mm 0.20 in5.1 mm
01:30 PM 66.7°F19.3°C 51.0°F10.6°C 57% 11.2 mph WSW18.0 kmh WSW 16.8 mph27.0 kmh 29.41 in995.9 mb 0.00 in0.0 mm 0.00 in0.0 mm 0.20 in5.1 mm
04:30 PM 58.5°F14.7°C 45.5°F7.5°C 62% 9.1 mph SSW14.6 kmh SSW 13.0 mph20.9 kmh 29.41 in995.9 mb 0.00 in0.0 mm 0.00 in0.0 mm 0.20 in5.1 mm
04:45 PM 57.9°F14.4°C 43.7°F6.5°C 59% 10.4 mph S16.7 kmh S 15.2 mph24.5 kmh 29.41 in995.9 mb 0.00 in0.0 mm 0.00 in0.0 mm 0.20 in5.1 mm
05:00 PM 57.2°F14.0°C 44.3°F6.8°C 62% 9.1 mph SSW14.6 kmh SSW 17.4 mph28.0 kmh 29.40 in995.6 mb 0.00 in0.0 mm 0.00 in0.0 mm 0.20 in5.1 mm
05:30 PM 56.3°F13.5°C 44.3°F6.8°C 64% 9.9 mph SSE15.9 kmh SSE 15.9 mph25.6 kmh 29.40 in995.6 mb 0.00 in0.0 mm 0.00 in0.0 mm 0.20 in5.1 mm
05:45 PM 55.4°F13.0°C 44.2°F6.8°C 66% 8.7 mph W14.0 kmh W 15.2 mph24.5 kmh 29.39 in995.3 mb 0.00 in0.0 mm 0.00 in0.0 mm 0.20 in5.1 mm
06:00 PM 54.3°F12.4°C 44.0°F6.7°C 68% 6.3 mph S10.1 kmh S 10.7 mph17.2 kmh 29.41 in995.9 mb 0.00 in0.0 mm 0.00 in0.0 mm 0.20 in5.1 mm
06:15 PM 54.0°F12.2°C 44.0°F6.7°C 69% 11.0 mph S17.7 kmh S 14.5 mph23.3 kmh 29.39 in995.3 mb 0.00 in0.0 mm 0.00 in0.0 mm 0.20 in5.1 mm
06:30 PM 52.5°F11.4°C 45.5°F7.5°C 77% 12.2 mph NNW19.6 kmh NNW 15.2 mph24.5 kmh 29.39 in995.3 mb 0.00 in0.0 mm 0.00 in0.0 mm 0.20 in5.1 mm
06:45 PM 50.5°F10.3°C 46.8°F8.2°C 87% 10.9 mph S17.5 kmh S 15.9 mph25.6 kmh 29.39 in995.3 mb 0.02 in0.5 mm 0.08 in2.0 mm 0.22 in5.6 mm
07:00 PM 50.9°F10.5°C 48.1°F8.9°C 90% 17.1 mph SSW27.5 kmh SSW 28.9 mph46.5 kmh 29.39 in995.3 mb 0.04 in1.0 mm 0.03 in0.8 mm 0.24 in6.1 mm
07:15 PM 50.9°F10.5°C 48.4°F9.1°C 91% 15.6 mph SE25.1 kmh SE 21.3 mph34.3 kmh 29.39 in995.3 mb 0.05 in1.3 mm 0.04 in1.0 mm 0.25 in6.4 mm
07:30 PM 50.7°F10.4°C 48.5°F9.2°C 92% 8.5 mph SE13.7 kmh SE 15.2 mph24.5 kmh 29.40 in995.6 mb 0.05 in1.3 mm 0.00 in0.0 mm 0.25 in6.4 mm
07:45 PM 50.9°F10.5°C 48.7°F9.3°C 92% 6.9 mph S11.1 kmh S 9.8 mph15.8 kmh 29.40 in995.6 mb 0.02 in0.5 mm 0.00 in0.0 mm 0.25 in6.4 mm
08:00 PM 50.9°F10.5°C 48.7°F9.3°C 92% 8.1 mph SSW13.0 kmh SSW 11.4 mph18.3 kmh 29.41 in995.9 mb 0.02 in0.5 mm 0.00 in0.0 mm 0.26 in6.6 mm
08:15 PM 50.9°F10.5°C 49.0°F9.4°C 93% 9.2 mph WSW14.8 kmh WSW 14.5 mph23.3 kmh 29.41 in995.9 mb 0.01 in0.3 mm 0.00 in0.0 mm 0.26 in6.6 mm
08:30 PM 50.9°F10.5°C 49.0°F9.4°C 93% 6.4 mph N10.3 kmh N 13.0 mph20.9 kmh 29.43 in996.6 mb 0.02 in0.5 mm 0.04 in1.0 mm 0.27 in6.9 mm
08:45 PM 50.9°F10.5°C 49.0°F9.4°C 93% 5.6 mph NNE9.0 kmh NNE 9.8 mph15.8 kmh 29.44 in997.0 mb 0.02 in0.5 mm 0.00 in0.0 mm 0.27 in6.9 mm
09:00 PM 50.7°F10.4°C 48.8°F9.3°C 93% 5.3 mph NE8.5 kmh NE 9.2 mph14.8 kmh 29.45 in997.3 mb 0.02 in0.5 mm 0.00 in0.0 mm 0.28 in7.1 mm
09:15 PM 50.5°F10.3°C 48.9°F9.4°C 94% 4.0 mph NW6.4 kmh NW 4.5 mph7.2 kmh 29.45 in997.3 mb 0.02 in0.5 mm 0.00 in0.0 mm 0.28 in7.1 mm
09:30 PM 50.5°F10.3°C 48.6°F9.2°C 93% 4.0 mph S6.4 kmh S 6.0 mph9.7 kmh 29.45 in997.3 mb 0.01 in0.3 mm 0.00 in0.0 mm 0.28 in7.1 mm
09:45 PM 50.4°F10.2°C 48.1°F8.9°C 92% 3.5 mph WNW5.6 kmh WNW 5.4 mph8.7 kmh 29.45 in997.3 mb 0.01 in0.3 mm 0.00 in0.0 mm 0.28 in7.1 mm
10:00 PM 50.2°F10.1°C 47.7°F8.7°C 91% 2.7 mph NW4.3 kmh NW 4.5 mph7.2 kmh 29.45 in997.3 mb 0.00 in0.0 mm 0.00 in0.0 mm 0.28 in7.1 mm
10:15 PM 49.8°F9.9°C 47.3°F8.5°C 91% 1.4 mph WNW2.3 kmh WNW 3.1 mph5.0 kmh 29.46 in997.6 mb 0.00 in0.0 mm 0.00 in0.0 mm 0.28 in7.1 mm
10:30 PM 49.8°F9.9°C 47.6°F8.7°C 92% 2.3 mph N3.7 kmh N 4.5 mph7.2 kmh 29.46 in997.6 mb 0.00 in0.0 mm 0.00 in0.0 mm 0.28 in7.1 mm
10:45 PM 50.5°F10.3°C 48.6°F9.2°C 93% 2.9 mph N4.7 kmh N 4.5 mph7.2 kmh 29.46 in997.6 mb 0.00 in0.0 mm 0.00 in0.0 mm 0.28 in7.1 mm
11:00 PM 51.1°F10.6°C 49.1°F9.5°C 93% 2.5 mph NNW4.0 kmh NNW 3.8 mph6.1 kmh 29.47 in998.0 mb 0.00 in0.0 mm 0.00 in0.0 mm 0.24 in6.1 mm
11:15 PM 50.9°F10.5°C 48.7°F9.3°C 92% 2.2 mph SW3.5 kmh SW 3.1 mph5.0 kmh 29.47 in998.0 mb 0.00 in0.0 mm 0.00 in0.0 mm 0.24 in6.1 mm
11:30 PM 51.1°F10.6°C 49.1°F9.5°C 93% 3.1 mph NE5.0 kmh NE 6.0 mph9.7 kmh 29.48 in998.3 mb 0.00 in0.0 mm 0.00 in0.0 mm 0.24 in6.1 mm
11:45 PM 51.1°F10.6°C 49.1°F9.5°C 93% 3.0 mph NW4.8 kmh NW 4.5 mph7.2 kmh 29.48 in998.3 mb 0.00 in0.0 mm 0.00 in0.0 mm 0.24 in6.1 mm